EmailTwitter


Observations de surface / Royaume-Uni / EGLL (03772)

Régions: Québec | Canada | États-Unis | Europe | France | UK | Ailleurs
Station
Affichage
Infos & localisation pour EGLL (03772) | Aide pour décoder les METARs

Observations prises le 2020-09-19 à 09H20 UTC à LONDON/HEATHROW, UK (EGLL)

Température: 19.0 Celsius

Point de rosée: 12.0 Celsius

Humidité relative: 64%

Vents: Nord-est à 17 km/h ou 9 noeuds.

Pression au niveau moyen de la mer: 101.80 kilopascals.

Visibilité horizontale: 6.21 milles terrestres ou 9.94 kilomètres.

Observation METAR:

EGLL 190920Z AUTO 05009KT 020V080 9999 NCD 19/12 Q1018 NOSIG=